sensor_id;sensor_type;location;lat;lon;timestamp;pressure;altitude;pressure_sealevel;temperature;humidity
76404;BME280;65232;48.358;2.122;2023-06-01T00:00:09;101027.41;;;16.01;73.05
76404;BME280;65232;48.358;2.122;2023-06-01T00:00:37;101027.03;;;15.96;72.86
76404;BME280;65232;48.358;2.122;2023-06-01T00:01:05;101026.03;;;15.97;72.91
76404;BME280;65232;48.358;2.122;2023-06-01T00:01:30;101032.81;;;16.01;72.59
76404;BME280;65232;48.358;2.122;2023-06-01T00:01:58;101035.03;;;16.05;72.15
76404;BME280;65232;48.358;2.122;2023-06-01T00:02:24;101029.31;;;16.08;72.16
76404;BME280;65232;48.358;2.122;2023-06-01T00:02:49;101026.94;;;16.05;71.18
76404;BME280;65232;48.358;2.122;2023-06-01T00:03:15;101023.53;;;16.03;70.87
76404;BME280;65232;48.358;2.122;2023-06-01T00:03:41;101029.31;;;16.08;70.86
76404;BME280;65232;48.358;2.122;2023-06-01T00:04:07;101036.56;;;16.08;70.72
76404;BME280;65232;48.358;2.122;2023-06-01T00:04:33;101033.03;;;16.07;70.67
76404;BME280;65232;48.358;2.122;2023-06-01T00:05:00;101031.31;;;16.06;70.55
76404;BME280;65232;48.358;2.122;2023-06-01T00:05:25;101024.56;;;16.02;70.52
76404;BME280;65232;48.358;2.122;2023-06-01T00:05:50;101023.88;;;16.00;70.80
76404;BME280;65232;48.358;2.122;2023-06-01T00:06:16;101031.97;;;16.00;70.68
76404;BME280;65232;48.358;2.122;2023-06-01T00:06:42;101029.13;;;16.02;70.94
76404;BME280;65232;48.358;2.122;2023-06-01T00:07:09;101029.56;;;15.97;71.37
76404;BME280;65232;48.358;2.122;2023-06-01T00:07:35;101033.03;;;15.90;71.74
76404;BME280;65232;48.358;2.122;2023-06-01T00:08:00;101029.81;;;15.86;72.02
76404;BME280;65232;48.358;2.122;2023-06-01T00:08:26;101030.69;;;15.86;72.16
76404;BME280;65232;48.358;2.122;2023-06-01T00:08:52;101028.44;;;15.82;72.21
76404;BME280;65232;48.358;2.122;2023-06-01T00:09:17;101031.59;;;15.95;71.77
76404;BME280;65232;48.358;2.122;2023-06-01T00:09:43;101032.59;;;15.94;71.88
76404;BME280;65232;48.358;2.122;2023-06-01T00:10:09;101031.03;;;15.92;71.82
76404;BME280;65232;48.358;2.122;2023-06-01T00:10:34;101023.47;;;15.95;72.06
76404;BME280;65232;48.358;2.122;2023-06-01T00:11:00;101031.34;;;15.88;72.21
76404;BME280;65232;48.358;2.122;2023-06-01T00:11:26;101031.34;;;15.88;72.24
76404;BME280;65232;48.358;2.122;2023-06-01T00:11:51;101034.38;;;15.85;72.61
76404;BME280;65232;48.358;2.122;2023-06-01T00:12:17;101028.63;;;15.88;71.88
76404;BME280;65232;48.358;2.122;2023-06-01T00:12:42;101035.06;;;15.88;71.83
76404;BME280;65232;48.358;2.122;2023-06-01T00:13:08;101033.88;;;15.90;71.85
76404;BME280;65232;48.358;2.122;2023-06-01T00:13:33;101027.63;;;15.90;72.08
76404;BME280;65232;48.358;2.122;2023-06-01T00:13:59;101027.63;;;15.90;72.14
76404;BME280;65232;48.358;2.122;2023-06-01T00:14:24;101026.63;;;15.91;72.14
76404;BME280;65232;48.358;2.122;2023-06-01T00:14:50;101032.19;;;15.89;72.29
76404;BME280;65232;48.358;2.122;2023-06-01T00:15:15;101035.06;;;15.88;72.29
76404;BME280;65232;48.358;2.122;2023-06-01T00:15:41;101024.94;;;15.90;71.98
76404;BME280;65232;48.358;2.122;2023-06-01T00:16:08;101028.44;;;15.82;72.29
76404;BME280;65232;48.358;2.122;2023-06-01T00:16:35;101030.50;;;15.88;72.33
76404;BME280;65232;48.358;2.122;2023-06-01T00:17:01;101025.47;;;15.93;72.12
76404;BME280;65232;48.358;2.122;2023-06-01T00:17:28;101022.94;;;15.92;71.93
76404;BME280;65232;48.358;2.122;2023-06-01T00:17:54;101027.34;;;15.93;71.83
76404;BME280;65232;48.358;2.122;2023-06-01T00:18:21;101021.78;;;15.94;72.25
76404;BME280;65232;48.358;2.122;2023-06-01T00:18:46;101025.72;;;16.00;71.65
76404;BME280;65232;48.358;2.122;2023-06-01T00:19:12;101025.19;;;15.96;71.54
76404;BME280;65232;48.358;2.122;2023-06-01T00:19:37;101019.09;;;15.94;72.00
76404;BME280;65232;48.358;2.122;2023-06-01T00:20:03;101023.47;;;15.95;71.99
76404;BME280;65232;48.358;2.122;2023-06-01T00:20:34;101027.88;;;15.96;72.05
76404;BME280;65232;48.358;2.122;2023-06-01T00:20:59;101021.78;;;15.94;72.06
76404;BME280;65232;48.358;2.122;2023-06-01T00:21:26;101025.19;;;15.96;72.01
76404;BME280;65232;48.358;2.122;2023-06-01T00:21:55;101021.94;;;15.93;71.96
76404;BME280;65232;48.358;2.122;2023-06-01T00:22:22;101027.19;;;15.94;72.19
76404;BME280;65232;48.358;2.122;2023-06-01T00:22:49;101019.38;;;15.91;72.66
76404;BME280;65232;48.358;2.122;2023-06-01T00:23:14;101020.63;;;15.97;72.29
76404;BME280;65232;48.358;2.122;2023-06-01T00:23:41;101023.78;;;15.92;72.75
76404;BME280;65232;48.358;2.122;2023-06-01T00:24:06;101021.47;;;15.97;72.40
76404;BME280;65232;48.358;2.122;2023-06-01T00:24:32;101024.78;;;15.91;72.72
76404;BME280;65232;48.358;2.122;2023-06-01T00:24:58;101021.09;;;15.92;72.60
76404;BME280;65232;48.358;2.122;2023-06-01T00:25:23;101027.50;;;15.91;72.80
76404;BME280;65232;48.358;2.122;2023-06-01T00:25:49;101029.69;;;15.88;72.50
76404;BME280;65232;48.358;2.122;2023-06-01T00:26:15;101024.34;;;15.96;72.42
76404;BME280;65232;48.358;2.122;2023-06-01T00:26:43;101026.19;;;15.95;72.21
76404;BME280;65232;48.358;2.122;2023-06-01T00:27:09;101026.56;;;16.00;72.10
76404;BME280;65232;48.358;2.122;2023-06-01T00:27:34;101025.63;;;15.92;72.08
76404;BME280;65232;48.358;2.122;2023-06-01T00:28:01;101027.34;;;15.93;72.18
76404;BME280;65232;48.358;2.122;2023-06-01T00:28:27;101023.09;;;15.90;72.27
76404;BME280;65232;48.358;2.122;2023-06-01T00:28:53;101026.78;;;15.89;72.26
76404;BME280;65232;48.358;2.122;2023-06-01T00:29:18;101022.78;;;15.93;72.57
76404;BME280;65232;48.358;2.122;2023-06-01T00:29:44;101025.94;;;15.88;72.19
76404;BME280;65232;48.358;2.122;2023-06-01T00:30:10;101022.41;;;15.88;72.24
76404;BME280;65232;48.358;2.122;2023-06-01T00:30:37;101031.72;;;15.94;72.14
76404;BME280;65232;48.358;2.122;2023-06-01T00:31:02;101022.25;;;15.90;72.60
76404;BME280;65232;48.358;2.122;2023-06-01T00:31:28;101023.59;;;15.85;72.29
76404;BME280;65232;48.358;2.122;2023-06-01T00:31:53;101023.44;;;15.87;72.57
76404;BME280;65232;48.358;2.122;2023-06-01T00:32:19;101029.69;;;15.88;72.73
76404;BME280;65232;48.358;2.122;2023-06-01T00:32:44;101034.22;;;15.87;72.58
76404;BME280;65232;48.358;2.122;2023-06-01T00:33:10;101023.25;;;15.88;71.51
76404;BME280;65232;48.358;2.122;2023-06-01T00:33:35;101029.34;;;15.91;70.94
76404;BME280;65232;48.358;2.122;2023-06-01T00:34:01;101021.47;;;15.97;71.29
76404;BME280;65232;48.358;2.122;2023-06-01T00:34:27;101025.72;;;16.00;71.39
76404;BME280;65232;48.358;2.122;2023-06-01T00:34:52;101024.19;;;15.97;71.57
76404;BME280;65232;48.358;2.122;2023-06-01T00:35:18;101026.56;;;16.00;70.70
76404;BME280;65232;48.358;2.122;2023-06-01T00:35:43;101028.28;;;16.01;70.81
76404;BME280;65232;48.358;2.122;2023-06-01T00:36:09;101023.88;;;16.00;71.08
76404;BME280;65232;48.358;2.122;2023-06-01T00:36:34;101028.28;;;16.01;71.52
76404;BME280;65232;48.358;2.122;2023-06-01T00:37:00;101023.06;;;16.08;71.09
76404;BME280;65232;48.358;2.122;2023-06-01T00:37:26;101022.47;;;16.14;71.02
76404;BME280;65232;48.358;2.122;2023-06-01T00:37:51;101023.31;;;16.14;70.46
76404;BME280;65232;48.358;2.122;2023-06-01T00:38:17;101020.59;;;16.14;70.82
76404;BME280;65232;48.358;2.122;2023-06-01T00:38:42;101024.31;;;16.13;70.99
76404;BME280;65232;48.358;2.122;2023-06-01T00:39:08;101030.41;;;16.15;70.53
76404;BME280;65232;48.358;2.122;2023-06-01T00:39:33;101024.34;;;16.21;69.79
76404;BME280;65232;48.358;2.122;2023-06-01T00:39:59;101021.81;;;16.20;70.36
76404;BME280;65232;48.358;2.122;2023-06-01T00:40:24;101019.81;;;16.22;70.20
76404;BME280;65232;48.358;2.122;2023-06-01T00:40:50;101022.19;;;16.25;69.95
76404;BME280;65232;48.358;2.122;2023-06-01T00:41:16;101018.50;;;16.26;70.03
76404;BME280;65232;48.358;2.122;2023-06-01T00:41:41;101026.97;;;16.31;70.12
76404;BME280;65232;48.358;2.122;2023-06-01T00:42:07;101024.44;;;16.30;70.00
76404;BME280;65232;48.358;2.122;2023-06-01T00:42:32;101019.88;;;16.30;69.52
76404;BME280;65232;48.358;2.122;2023-06-01T00:42:58;101018.53;;;16.34;68.89
76404;BME280;65232;48.358;2.122;2023-06-01T00:43:23;101022.78;;;16.37;68.57
76404;BME280;65232;48.358;2.122;2023-06-01T00:43:49;101023.31;;;16.40;68.56
76404;BME280;65232;48.358;2.122;2023-06-01T00:44:14;101028.94;;;16.47;66.64
76404;BME280;65232;48.358;2.122;2023-06-01T00:44:40;101021.66;;;16.47;66.35
76404;BME280;65232;48.358;2.122;2023-06-01T00:45:06;101021.47;;;16.49;66.33
76404;BME280;65232;48.358;2.122;2023-06-01T00:45:31;101019.28;;;16.44;67.54
76404;BME280;65232;48.358;2.122;2023-06-01T00:45:57;101018.38;;;16.36;68.05
76404;BME280;65232;48.358;2.122;2023-06-01T00:46:22;101024.44;;;16.30;69.10
76404;BME280;65232;48.358;2.122;2023-06-01T00:46:49;101025.13;;;16.32;69.26
76404;BME280;65232;48.358;2.122;2023-06-01T00:47:15;101021.22;;;16.34;68.05
76404;BME280;65232;48.358;2.122;2023-06-01T00:47:43;101026.31;;;16.37;67.27
76404;BME280;65232;48.358;2.122;2023-06-01T00:48:08;101026.00;;;16.40;67.46
76404;BME280;65232;48.358;2.122;2023-06-01T00:48:35;101017.53;;;16.35;67.49
76404;BME280;65232;48.358;2.122;2023-06-01T00:49:01;101025.31;;;16.38;67.33
76404;BME280;65232;48.358;2.122;2023-06-01T00:49:26;101026.16;;;16.39;67.11
76404;BME280;65232;48.358;2.122;2023-06-01T00:49:52;101027.22;;;16.46;66.19
76404;BME280;65232;48.358;2.122;2023-06-01T00:50:18;101022.88;;;16.53;66.01
76404;BME280;65232;48.358;2.122;2023-06-01T00:50:44;101015.78;;;16.52;65.79
76404;BME280;65232;48.358;2.122;2023-06-01T00:51:10;101021.19;;;16.52;65.44
76404;BME280;65232;48.358;2.122;2023-06-01T00:51:40;101024.25;;;16.57;65.46
76404;BME280;65232;48.358;2.122;2023-06-01T00:52:06;101022.56;;;16.56;65.15
76404;BME280;65232;48.358;2.122;2023-06-01T00:52:32;101020.00;;;16.54;65.69
76404;BME280;65232;48.358;2.122;2023-06-01T00:52:58;101012.91;;;16.53;66.05
76404;BME280;65232;48.358;2.122;2023-06-01T00:53:25;101023.72;;;16.53;66.11
76404;BME280;65232;48.358;2.122;2023-06-01T00:53:51;101024.09;;;16.58;65.93
76404;BME280;65232;48.358;2.122;2023-06-01T00:54:16;101024.16;;;16.67;65.26
76404;BME280;65232;48.358;2.122;2023-06-01T00:54:42;101026.69;;;16.68;65.05
76404;BME280;65232;48.358;2.122;2023-06-01T00:55:09;101027.06;;;16.73;64.70
76404;BME280;65232;48.358;2.122;2023-06-01T00:55:35;101027.41;;;16.70;64.76
76404;BME280;65232;48.358;2.122;2023-06-01T00:56:01;101023.53;;;16.73;64.54
76404;BME280;65232;48.358;2.122;2023-06-01T00:56:27;101028.09;;;16.80;64.34
76404;BME280;65232;48.358;2.122;2023-06-01T00:56:54;101023.38;;;16.74;64.23
76404;BME280;65232;48.358;2.122;2023-06-01T00:57:19;101027.06;;;16.73;64.49
76404;BME280;65232;48.358;2.122;2023-06-01T00:57:46;101025.22;;;16.74;64.95
76404;BME280;65232;48.358;2.122;2023-06-01T00:58:14;101028.78;;;16.74;64.74
76404;BME280;65232;48.358;2.122;2023-06-01T00:58:40;101021.50;;;16.75;64.59
76404;BME280;65232;48.358;2.122;2023-06-01T00:59:06;101022.84;;;16.71;65.54
76404;BME280;65232;48.358;2.122;2023-06-01T00:59:32;101020.06;;;16.63;66.43
76404;BME280;65232;48.358;2.122;2023-06-01T00:59:58;101019.69;;;16.57;67.05
76404;BME280;65232;48.358;2.122;2023-06-01T01:00:26;101025.25;;;16.56;66.50
76404;BME280;65232;48.358;2.122;2023-06-01T01:00:52;101022.41;;;16.57;65.41
76404;BME280;65232;48.358;2.122;2023-06-01T01:01:18;101024.94;;;16.59;65.77
76404;BME280;65232;48.358;2.122;2023-06-01T01:01:44;101018.31;;;16.53;66.91
76404;BME280;65232;48.358;2.122;2023-06-01T01:02:09;101014.75;;;16.53;67.25
76404;BME280;65232;48.358;2.122;2023-06-01T01:02:40;101024.03;;;16.50;66.11
76404;BME280;65232;48.358;2.122;2023-06-01T01:03:06;101026.56;;;16.52;66.25
76404;BME280;65232;48.358;2.122;2023-06-01T01:03:36;101023.72;;;16.53;66.41
76404;BME280;65232;48.358;2.122;2023-06-01T01:04:03;101014.66;;;16.63;65.99
76404;BME280;65232;48.358;2.122;2023-06-01T01:04:29;101025.84;;;16.68;65.40
76404;BME280;65232;48.358;2.122;2023-06-01T01:04:55;101016.91;;;16.67;65.24
76404;BME280;65232;48.358;2.122;2023-06-01T01:05:20;101016.22;;;16.65;65.87
76404;BME280;65232;48.358;2.122;2023-06-01T01:05:46;101010.81;;;16.65;65.78
76404;BME280;65232;48.358;2.122;2023-06-01T01:06:21;101017.59;;;16.69;65.35
76404;BME280;65232;48.358;2.122;2023-06-01T01:07:38;101011.56;;;16.75;64.77
76404;BME280;65232;48.358;2.122;2023-06-01T01:11:18;101013.75;;;16.80;64.71
76404;BME280;65232;48.358;2.122;2023-06-01T01:11:54;101007.66;;;16.78;65.22
76404;BME280;65232;48.358;2.122;2023-06-01T01:12:47;101015.75;;;16.78;65.51
76404;BME280;65232;48.358;2.122;2023-06-01T01:13:21;101017.44;;;16.71;66.17
76404;BME280;65232;48.358;2.122;2023-06-01T01:14:44;101016.00;;;16.58;67.21
76404;BME280;65232;48.358;2.122;2023-06-01T01:15:29;101011.06;;;16.54;64.68
76404;BME280;65232;48.358;2.122;2023-06-01T01:16:02;101021.22;;;16.60;64.91
76404;BME280;65232;48.358;2.122;2023-06-01T01:16:31;101015.84;;;16.60;65.22
76404;BME280;65232;48.358;2.122;2023-06-01T01:17:15;101015.38;;;16.65;65.75
76404;BME280;65232;48.358;2.122;2023-06-01T01:17:44;101009.09;;;16.64;65.78
76404;BME280;65232;48.358;2.122;2023-06-01T01:18:25;101011.38;;;16.51;66.45
76404;BME280;65232;48.358;2.122;2023-06-01T01:20:27;101018.38;;;16.36;67.36
76404;BME280;65232;48.358;2.122;2023-06-01T01:20:58;101010.97;;;16.38;67.03
76404;BME280;65232;48.358;2.122;2023-06-01T01:21:34;101020.13;;;16.45;67.06
76404;BME280;65232;48.358;2.122;2023-06-01T01:22:25;101015.03;;;16.42;66.68
76404;BME280;65232;48.358;2.122;2023-06-01T01:23:29;101015.22;;;16.48;67.38
76404;BME280;65232;48.358;2.122;2023-06-01T01:26:28;101021.66;;;16.21;68.84
76404;BME280;65232;48.358;2.122;2023-06-01T01:27:12;101021.50;;;16.23;68.62
76404;BME280;65232;48.358;2.122;2023-06-01T01:29:01;101012.66;;;16.39;68.29
76404;BME280;65232;48.358;2.122;2023-06-01T01:29:31;101011.63;;;16.32;68.99
76404;BME280;65232;48.358;2.122;2023-06-01T01:30:02;101014.13;;;16.33;67.97
76404;BME280;65232;48.358;2.122;2023-06-01T01:30:30;101014.81;;;16.35;66.87
76404;BME280;65232;48.358;2.122;2023-06-01T01:30:59;101010.56;;;16.33;66.77
76404;BME280;65232;48.358;2.122;2023-06-01T01:31:26;101007.88;;;16.33;66.49
76404;BME280;65232;48.358;2.122;2023-06-01T01:31:52;101003.31;;;16.33;65.52
76404;BME280;65232;48.358;2.122;2023-06-01T01:32:21;101010.09;;;16.37;65.54
76404;BME280;65232;48.358;2.122;2023-06-01T01:32:50;101008.78;;;16.41;65.20
76404;BME280;65232;48.358;2.122;2023-06-01T01:33:17;101009.63;;;16.42;65.56
76404;BME280;65232;48.358;2.122;2023-06-01T01:33:46;101009.09;;;16.38;65.94
76404;BME280;65232;48.358;2.122;2023-06-01T01:34:11;101014.34;;;16.40;65.73
76404;BME280;65232;48.358;2.122;2023-06-01T01:34:38;101016.38;;;16.38;65.26
76404;BME280;65232;48.358;2.122;2023-06-01T01:35:07;101011.13;;;16.36;66.02
76404;BME280;65232;48.358;2.122;2023-06-01T01:35:36;101008.09;;;16.39;65.59
76404;BME280;65232;48.358;2.122;2023-06-01T01:36:03;101012.34;;;16.42;65.94
76404;BME280;65232;48.358;2.122;2023-06-01T01:36:31;101016.91;;;16.41;65.96
76404;BME280;65232;48.358;2.122;2023-06-01T01:36:56;101013.72;;;16.46;65.93
76404;BME280;65232;48.358;2.122;2023-06-01T01:37:22;101016.59;;;16.44;65.58
76404;BME280;65232;48.358;2.122;2023-06-01T01:37:55;101012.03;;;16.45;65.52
76404;BME280;65232;48.358;2.122;2023-06-01T01:38:23;101015.75;;;16.44;65.66
76404;BME280;65232;48.358;2.122;2023-06-01T01:38:49;101012.53;;;16.48;65.25
76404;BME280;65232;48.358;2.122;2023-06-01T01:39:16;101015.78;;;16.52;66.68
76404;BME280;65232;48.358;2.122;2023-06-01T01:39:41;101014.38;;;16.48;66.70
76404;BME280;65232;48.358;2.122;2023-06-01T01:40:08;101013.03;;;16.44;67.30
76404;BME280;65232;48.358;2.122;2023-06-01T01:40:33;101013.72;;;16.46;66.93
76404;BME280;65232;48.358;2.122;2023-06-01T01:40:59;101019.03;;;16.30;67.77
76404;BME280;65232;48.358;2.122;2023-06-01T01:41:24;101016.91;;;16.15;68.63
76404;BME280;65232;48.358;2.122;2023-06-01T01:41:52;101012.13;;;16.09;69.32
76404;BME280;65232;48.358;2.122;2023-06-01T01:42:18;101009.88;;;16.05;69.54
76404;BME280;65232;48.358;2.122;2023-06-01T01:42:43;101019.81;;;16.04;69.63
76404;BME280;65232;48.358;2.122;2023-06-01T01:43:09;101015.28;;;16.05;69.32
76404;BME280;65232;48.358;2.122;2023-06-01T01:43:35;101021.91;;;16.10;69.43
76404;BME280;65232;48.358;2.122;2023-06-01T01:44:02;101015.66;;;16.10;69.54
76404;BME280;65232;48.358;2.122;2023-06-01T01:44:28;101011.66;;;16.14;69.33
76404;BME280;65232;48.358;2.122;2023-06-01T01:44:54;101018.06;;;16.13;69.15
76404;BME280;65232;48.358;2.122;2023-06-01T01:45:20;101015.72;;;16.18;69.34
76404;BME280;65232;48.358;2.122;2023-06-01T01:45:49;101018.06;;;16.13;69.37
76404;BME280;65232;48.358;2.122;2023-06-01T01:46:23;101016.50;;;16.10;69.29
76404;BME280;65232;48.358;2.122;2023-06-01T01:47:03;101016.50;;;16.10;69.21
76404;BME280;65232;48.358;2.122;2023-06-01T01:47:38;101013.34;;;16.15;69.10
76404;BME280;65232;48.358;2.122;2023-06-01T01:48:11;101013.44;;;16.05;69.73
76404;BME280;65232;48.358;2.122;2023-06-01T01:49:28;101012.06;;;16.01;69.79
76404;BME280;65232;48.358;2.122;2023-06-01T01:49:58;101013.06;;;16.00;69.71
76404;BME280;65232;48.358;2.122;2023-06-01T01:50:28;101012.00;;;15.93;70.62
76404;BME280;65232;48.358;2.122;2023-06-01T01:51:04;101011.69;;;15.96;71.00
76404;BME280;65232;48.358;2.122;2023-06-01T01:51:50;101021.72;;;15.86;71.35
76404;BME280;65232;48.358;2.122;2023-06-01T01:52:22;101011.44;;;15.90;70.90
76404;BME280;65232;48.358;2.122;2023-06-01T01:52:51;101017.34;;;15.85;71.13
76404;BME280;65232;48.358;2.122;2023-06-01T01:53:19;101017.78;;;15.80;70.94
76404;BME280;65232;48.358;2.122;2023-06-01T01:53:50;101016.03;;;15.71;70.60
76404;BME280;65232;48.358;2.122;2023-06-01T01:54:18;101014.78;;;15.66;71.08
76404;BME280;65232;48.358;2.122;2023-06-01T01:54:46;101012.09;;;15.66;70.86
76404;BME280;65232;48.358;2.122;2023-06-01T01:55:12;101011.25;;;15.65;70.77
76404;BME280;65232;48.358;2.122;2023-06-01T01:55:41;101009.25;;;15.67;70.35
76404;BME280;65232;48.358;2.122;2023-06-01T01:56:07;101013.94;;;15.65;70.73
76404;BME280;65232;48.358;2.122;2023-06-01T01:56:34;101011.78;;;15.69;70.83
76404;BME280;65232;48.358;2.122;2023-06-01T01:57:01;101013.34;;;15.71;70.91
76404;BME280;65232;48.358;2.122;2023-06-01T01:57:29;101016.63;;;15.65;70.36
76404;BME280;65232;48.358;2.122;2023-06-01T01:57:56;101009.16;;;15.59;70.77
76404;BME280;65232;48.358;2.122;2023-06-01T01:58:24;101014.50;;;15.69;70.25
76404;BME280;65232;48.358;2.122;2023-06-01T01:58:53;101011.25;;;15.65;70.45
76404;BME280;65232;48.358;2.122;2023-06-01T01:59:19;101015.94;;;15.63;70.70
76404;BME280;65232;48.358;2.122;2023-06-01T01:59:46;101016.09;;;15.62;70.54
76404;BME280;65232;48.358;2.122;2023-06-01T02:00:12;101012.69;;;15.60;70.95
76404;BME280;65232;48.358;2.122;2023-06-01T02:00:43;101009.59;;;15.55;71.05
76404;BME280;65232;48.358;2.122;2023-06-01T02:01:11;101014.72;;;15.58;71.13
76404;BME280;65232;48.358;2.122;2023-06-01T02:01:37;101014.53;;;15.59;70.76
76404;BME280;65232;48.358;2.122;2023-06-01T02:02:07;101015.41;;;15.60;71.09
76404;BME280;65232;48.358;2.122;2023-06-01T02:02:32;101012.03;;;15.58;70.60
76404;BME280;65232;48.358;2.122;2023-06-01T02:02:59;101013.88;;;15.57;71.16
76404;BME280;65232;48.358;2.122;2023-06-01T02:03:25;101016.31;;;15.50;71.48
76404;BME280;65232;48.358;2.122;2023-06-01T02:04:01;101014.31;;;15.52;72.04
76404;BME280;65232;48.358;2.122;2023-06-01T02:04:28;101012.03;;;15.58;70.60
76404;BME280;65232;48.358;2.122;2023-06-01T02:04:53;101018.78;;;15.62;70.92
76404;BME280;65232;48.358;2.122;2023-06-01T02:05:19;101020.50;;;15.63;70.95
76404;BME280;65232;48.358;2.122;2023-06-01T02:05:45;101017.09;;;15.61;71.06
76404;BME280;65232;48.358;2.122;2023-06-01T02:06:11;101008.06;;;15.52;71.47
76404;BME280;65232;48.358;2.122;2023-06-01T02:06:36;101015.88;;;15.55;71.35
76404;BME280;65232;48.358;2.122;2023-06-01T02:07:02;101005.34;;;15.52;71.25
76404;BME280;65232;48.358;2.122;2023-06-01T02:07:30;101015.41;;;15.60;71.31
76404;BME280;65232;48.358;2.122;2023-06-01T02:07:59;101021.41;;;15.53;71.67
76404;BME280;65232;48.358;2.122;2023-06-01T02:08:25;101016.31;;;15.50;71.31
76404;BME280;65232;48.358;2.122;2023-06-01T02:08:51;101019.59;;;15.44;71.87
76404;BME280;65232;48.358;2.122;2023-06-01T02:09:16;101017.28;;;15.49;71.93
76404;BME280;65232;48.358;2.122;2023-06-01T02:09:42;101013.75;;;15.49;72.50
76404;BME280;65232;48.358;2.122;2023-06-01T02:10:09;101021.78;;;15.41;73.04
76404;BME280;65232;48.358;2.122;2023-06-01T02:10:35;101012.84;;;15.40;72.95
76404;BME280;65232;48.358;2.122;2023-06-01T02:11:01;101012.69;;;15.42;72.70
76404;BME280;65232;48.358;2.122;2023-06-01T02:11:26;101017.09;;;15.43;72.73
76404;BME280;65232;48.358;2.122;2023-06-01T02:11:52;101016.38;;;15.41;73.28
76404;BME280;65232;48.358;2.122;2023-06-01T02:12:18;101009.00;;;15.43;72.34
76404;BME280;65232;48.358;2.122;2023-06-01T02:12:43;101012.22;;;15.46;72.10
76404;BME280;65232;48.358;2.122;2023-06-01T02:13:09;101016.31;;;15.50;72.05
76404;BME280;65232;48.358;2.122;2023-06-01T02:13:35;101014.59;;;15.49;71.79
76404;BME280;65232;48.358;2.122;2023-06-01T02:14:01;101016.22;;;15.42;72.54
76404;BME280;65232;48.358;2.122;2023-06-01T02:14:26;101013.06;;;15.47;71.64
76404;BME280;65232;48.358;2.122;2023-06-01T02:14:52;101013.19;;;15.45;72.15
76404;BME280;65232;48.358;2.122;2023-06-01T02:15:17;101018.75;;;15.44;71.63
76404;BME280;65232;48.358;2.122;2023-06-01T02:15:43;101019.44;;;15.46;71.46
76404;BME280;65232;48.358;2.122;2023-06-01T02:16:08;101024.81;;;15.56;71.63
76404;BME280;65232;48.358;2.122;2023-06-01T02:16:34;101022.28;;;15.44;71.74
76404;BME280;65232;48.358;2.122;2023-06-01T02:16:59;101013.28;;;15.36;71.94
76404;BME280;65232;48.358;2.122;2023-06-01T02:17:25;101011.28;;;15.38;72.32
76404;BME280;65232;48.358;2.122;2023-06-01T02:17:52;101016.28;;;15.33;72.26
76404;BME280;65232;48.358;2.122;2023-06-01T02:18:18;101016.28;;;15.33;72.46
76404;BME280;65232;48.358;2.122;2023-06-01T02:18:45;101017.28;;;15.32;73.09
76404;BME280;65232;48.358;2.122;2023-06-01T02:19:12;101013.38;;;15.26;72.97
76404;BME280;65232;48.358;2.122;2023-06-01T02:19:42;101027.69;;;15.27;73.21
76404;BME280;65232;48.358;2.122;2023-06-01T02:20:09;101013.09;;;15.20;73.44
76404;BME280;65232;48.358;2.122;2023-06-01T02:20:35;101023.03;;;15.19;73.43
76404;BME280;65232;48.358;2.122;2023-06-01T02:21:00;101019.78;;;15.15;73.55
76404;BME280;65232;48.358;2.122;2023-06-01T02:21:26;101018.16;;;15.05;74.10
76404;BME280;65232;48.358;2.122;2023-06-01T02:21:52;101018.94;;;15.15;73.74
76404;BME280;65232;48.358;2.122;2023-06-01T02:22:18;101015.56;;;15.13;73.81
76404;BME280;65232;48.358;2.122;2023-06-01T02:22:44;101013.19;;;15.10;73.83
76404;BME280;65232;48.358;2.122;2023-06-01T02:23:10;101009.78;;;15.08;74.02
76404;BME280;65232;48.358;2.122;2023-06-01T02:23:36;101014.72;;;15.12;73.96
76404;BME280;65232;48.358;2.122;2023-06-01T02:24:05;101013.72;;;15.13;73.38
76404;BME280;65232;48.358;2.122;2023-06-01T02:24:32;101014.72;;;15.12;72.92
76404;BME280;65232;48.358;2.122;2023-06-01T02:24:58;101012.88;;;15.13;73.60
76404;BME280;65232;48.358;2.122;2023-06-01T02:25:23;101010.84;;;15.15;73.39
76404;BME280;65232;48.358;2.122;2023-06-01T02:25:49;101015.25;;;15.16;73.17
76404;BME280;65232;48.358;2.122;2023-06-01T02:26:14;101012.41;;;15.17;73.15
76404;BME280;65232;48.358;2.122;2023-06-01T02:26:41;101008.50;;;15.12;73.52
76404;BME280;65232;48.358;2.122;2023-06-01T02:27:07;101005.38;;;15.07;73.81
76404;BME280;65232;48.358;2.122;2023-06-01T02:27:33;101013.91;;;15.02;74.08
76404;BME280;65232;48.358;2.122;2023-06-01T02:27:58;101011.84;;;14.96;74.13
76404;BME280;65232;48.358;2.122;2023-06-01T02:28:23;101008.53;;;15.02;73.98
76404;BME280;65232;48.358;2.122;2023-06-01T02:28:49;101008.38;;;15.04;73.31
76404;BME280;65232;48.358;2.122;2023-06-01T02:29:15;101003.97;;;15.03;73.59
76404;BME280;65232;48.358;2.122;2023-06-01T02:29:40;101008.38;;;15.04;73.31
76404;BME280;65232;48.358;2.122;2023-06-01T02:30:07;101005.63;;;15.13;71.53
76404;BME280;65232;48.358;2.122;2023-06-01T02:30:32;101008.84;;;15.17;70.78
76404;BME280;65232;48.358;2.122;2023-06-01T02:30:59;101009.66;;;15.27;70.82
76404;BME280;65232;48.358;2.122;2023-06-01T02:31:24;101000.09;;;15.33;70.39
76404;BME280;65232;48.358;2.122;2023-06-01T02:31:51;101005.97;;;15.28;71.38
76404;BME280;65232;48.358;2.122;2023-06-01T02:32:17;101010.81;;;15.25;71.63
76404;BME280;65232;48.358;2.122;2023-06-01T02:32:43;101002.56;;;15.26;71.37
76404;BME280;65232;48.358;2.122;2023-06-01T02:33:13;101006.97;;;15.27;71.61
76404;BME280;65232;48.358;2.122;2023-06-01T02:33:40;101001.63;;;15.17;71.94
76404;BME280;65232;48.358;2.122;2023-06-01T02:34:06;100998.56;;;15.12;72.74